sensor_id;sensor_type;location;lat;lon;timestamp;P1;durP1;ratioP1;P2;durP2;ratioP2
1533;SDS011;760;48.822;9.304;2023-03-08T05:07:49;6.63;;;3.70;;
1533;SDS011;760;48.822;9.304;2023-03-08T05:10:15;4.70;;;4.30;;
1533;SDS011;760;48.822;9.304;2023-03-08T05:12:40;4.00;;;3.63;;
1533;SDS011;760;48.822;9.304;2023-03-08T05:15:06;7.37;;;4.83;;
1533;SDS011;760;48.822;9.304;2023-03-08T05:17:32;4.90;;;3.73;;
1533;SDS011;760;48.822;9.304;2023-03-08T05:19:58;7.50;;;4.67;;
1533;SDS011;760;48.822;9.304;2023-03-08T05:22:23;3.70;;;3.40;;
1533;SDS011;760;48.822;9.304;2023-03-08T05:24:49;4.30;;;3.90;;
1533;SDS011;760;48.822;9.304;2023-03-08T05:27:14;7.47;;;4.77;;
1533;SDS011;760;48.822;9.304;2023-03-08T05:29:40;4.93;;;4.07;;
1533;SDS011;760;48.822;9.304;2023-03-08T05:32:09;8.13;;;4.60;;
1533;SDS011;760;48.822;9.304;2023-03-08T05:34:35;7.70;;;5.22;;
1533;SDS011;760;48.822;9.304;2023-03-08T05:37:00;6.80;;;5.93;;
1533;SDS011;760;48.822;9.304;2023-03-08T05:39:26;7.23;;;4.40;;
1533;SDS011;760;48.822;9.304;2023-03-08T05:41:54;4.88;;;4.03;;
1533;SDS011;760;48.822;9.304;2023-03-08T05:44:20;5.97;;;4.45;;
1533;SDS011;760;48.822;9.304;2023-03-08T05:46:48;6.37;;;4.30;;
1533;SDS011;760;48.822;9.304;2023-03-08T05:49:14;5.32;;;3.72;;
1533;SDS011;760;48.822;9.304;2023-03-08T05:51:39;5.83;;;3.97;;
1533;SDS011;760;48.822;9.304;2023-03-08T05:54:05;8.73;;;4.20;;
1533;SDS011;760;48.822;9.304;2023-03-08T05:56:31;8.00;;;4.50;;
1533;SDS011;760;48.822;9.304;2023-03-08T05:58:56;5.47;;;4.10;;
1533;SDS011;760;48.822;9.304;2023-03-08T06:01:23;6.30;;;4.70;;
1533;SDS011;760;48.822;9.304;2023-03-08T06:03:51;3.92;;;3.40;;
1533;SDS011;760;48.822;9.304;2023-03-08T06:06:19;8.10;;;5.35;;
1533;SDS011;760;48.822;9.304;2023-03-08T06:08:46;5.82;;;4.20;;
1533;SDS011;760;48.822;9.304;2023-03-08T06:11:12;6.72;;;4.85;;
1533;SDS011;760;48.822;9.304;2023-03-08T06:13:38;5.65;;;3.88;;
1533;SDS011;760;48.822;9.304;2023-03-08T06:16:04;5.63;;;4.40;;
1533;SDS011;760;48.822;9.304;2023-03-08T06:18:31;5.40;;;3.83;;
1533;SDS011;760;48.822;9.304;2023-03-08T06:20:58;5.80;;;4.65;;
1533;SDS011;760;48.822;9.304;2023-03-08T06:23:27;6.03;;;4.68;;
1533;SDS011;760;48.822;9.304;2023-03-08T06:25:54;6.22;;;3.92;;
1533;SDS011;760;48.822;9.304;2023-03-08T06:28:21;9.73;;;5.03;;
1533;SDS011;760;48.822;9.304;2023-03-08T06:30:47;6.85;;;4.05;;
1533;SDS011;760;48.822;9.304;2023-03-08T06:33:16;4.85;;;3.80;;
1533;SDS011;760;48.822;9.304;2023-03-08T06:35:43;5.65;;;4.05;;
1533;SDS011;760;48.822;9.304;2023-03-08T06:38:18;5.25;;;4.10;;
1533;SDS011;760;48.822;9.304;2023-03-08T06:40:44;5.70;;;4.20;;
1533;SDS011;760;48.822;9.304;2023-03-08T06:43:09;5.63;;;4.27;;
1533;SDS011;760;48.822;9.304;2023-03-08T06:45:36;5.27;;;4.50;;
1533;SDS011;760;48.822;9.304;2023-03-08T06:48:02;4.65;;;3.90;;
1533;SDS011;760;48.822;9.304;2023-03-08T06:50:28;5.10;;;4.47;;
1533;SDS011;760;48.822;9.304;2023-03-08T06:52:54;7.20;;;4.23;;
1533;SDS011;760;48.822;9.304;2023-03-08T06:55:19;8.07;;;4.60;;
1533;SDS011;760;48.822;9.304;2023-03-08T06:57:45;6.67;;;4.50;;
1533;SDS011;760;48.822;9.304;2023-03-08T07:00:11;8.50;;;5.07;;
1533;SDS011;760;48.822;9.304;2023-03-08T07:02:37;7.80;;;4.72;;
1533;SDS011;760;48.822;9.304;2023-03-08T07:05:03;7.10;;;3.90;;
1533;SDS011;760;48.822;9.304;2023-03-08T07:07:29;4.93;;;4.03;;
1533;SDS011;760;48.822;9.304;2023-03-08T07:09:54;7.50;;;4.60;;
1533;SDS011;760;48.822;9.304;2023-03-08T07:12:21;5.93;;;4.65;;
1533;SDS011;760;48.822;9.304;2023-03-08T07:14:47;5.10;;;3.90;;
1533;SDS011;760;48.822;9.304;2023-03-08T07:17:13;3.50;;;3.20;;
1533;SDS011;760;48.822;9.304;2023-03-08T07:19:38;3.67;;;3.13;;
1533;SDS011;760;48.822;9.304;2023-03-08T07:22:04;4.27;;;3.90;;
1533;SDS011;760;48.822;9.304;2023-03-08T07:24:30;6.30;;;4.23;;
1533;SDS011;760;48.822;9.304;2023-03-08T07:26:55;4.53;;;3.90;;
1533;SDS011;760;48.822;9.304;2023-03-08T07:29:21;7.00;;;4.60;;
1533;SDS011;760;48.822;9.304;2023-03-08T07:31:46;5.23;;;4.00;;
1533;SDS011;760;48.822;9.304;2023-03-08T07:34:12;7.37;;;4.90;;
1533;SDS011;760;48.822;9.304;2023-03-08T07:36:37;8.67;;;5.00;;
1533;SDS011;760;48.822;9.304;2023-03-08T07:39:04;6.15;;;4.10;;
1533;SDS011;760;48.822;9.304;2023-03-08T07:41:29;2.83;;;2.60;;
1533;SDS011;760;48.822;9.304;2023-03-08T07:43:57;5.15;;;4.45;;
1533;SDS011;760;48.822;9.304;2023-03-08T07:46:22;5.80;;;4.77;;
1533;SDS011;760;48.822;9.304;2023-03-08T07:48:48;6.20;;;3.97;;
1533;SDS011;760;48.822;9.304;2023-03-08T07:51:16;5.70;;;4.65;;
1533;SDS011;760;48.822;9.304;2023-03-08T07:53:42;12.10;;;5.10;;
1533;SDS011;760;48.822;9.304;2023-03-08T07:56:07;8.73;;;5.67;;
1533;SDS011;760;48.822;9.304;2023-03-08T07:58:33;5.77;;;4.53;;
1533;SDS011;760;48.822;9.304;2023-03-08T08:00:59;5.93;;;4.50;;
1533;SDS011;760;48.822;9.304;2023-03-08T08:03:24;6.37;;;3.70;;
1533;SDS011;760;48.822;9.304;2023-03-08T08:05:50;8.10;;;5.30;;
1533;SDS011;760;48.822;9.304;2023-03-08T08:08:16;4.47;;;3.53;;
1533;SDS011;760;48.822;9.304;2023-03-08T08:10:42;7.77;;;4.83;;
1533;SDS011;760;48.822;9.304;2023-03-08T08:13:08;4.82;;;4.25;;
1533;SDS011;760;48.822;9.304;2023-03-08T08:15:34;5.03;;;3.92;;
1533;SDS011;760;48.822;9.304;2023-03-08T08:17:59;9.47;;;5.07;;
1533;SDS011;760;48.822;9.304;2023-03-08T08:20:25;5.83;;;4.57;;
1533;SDS011;760;48.822;9.304;2023-03-08T08:22:52;5.55;;;4.45;;
1533;SDS011;760;48.822;9.304;2023-03-08T08:25:18;7.32;;;4.82;;
1533;SDS011;760;48.822;9.304;2023-03-08T08:27:44;7.10;;;4.80;;
1533;SDS011;760;48.822;9.304;2023-03-08T08:30:12;6.00;;;4.43;;
1533;SDS011;760;48.822;9.304;2023-03-08T08:32:39;5.75;;;5.20;;
1533;SDS011;760;48.822;9.304;2023-03-08T08:35:05;5.70;;;4.57;;
1533;SDS011;760;48.822;9.304;2023-03-08T08:37:31;6.82;;;4.82;;
1533;SDS011;760;48.822;9.304;2023-03-08T08:39:57;6.72;;;5.03;;
1533;SDS011;760;48.822;9.304;2023-03-08T08:42:23;7.00;;;5.03;;
1533;SDS011;760;48.822;9.304;2023-03-08T08:44:49;7.53;;;4.63;;
1533;SDS011;760;48.822;9.304;2023-03-08T08:47:16;7.03;;;5.10;;
1533;SDS011;760;48.822;9.304;2023-03-08T08:49:42;6.87;;;5.20;;
1533;SDS011;760;48.822;9.304;2023-03-08T08:52:08;7.70;;;4.60;;
1533;SDS011;760;48.822;9.304;2023-03-08T08:54:33;7.27;;;5.17;;
1533;SDS011;760;48.822;9.304;2023-03-08T08:56:59;8.30;;;5.80;;
1533;SDS011;760;48.822;9.304;2023-03-08T08:59:24;9.10;;;6.03;;
1533;SDS011;760;48.822;9.304;2023-03-08T09:01:50;9.40;;;6.17;;
1533;SDS011;760;48.822;9.304;2023-03-08T09:04:15;8.23;;;6.10;;
1533;SDS011;760;48.822;9.304;2023-03-08T09:06:41;5.60;;;4.20;;
1533;SDS011;760;48.822;9.304;2023-03-08T09:09:07;13.40;;;7.87;;
1533;SDS011;760;48.822;9.304;2023-03-08T09:11:33;8.02;;;5.22;;
1533;SDS011;760;48.822;9.304;2023-03-08T09:13:59;9.27;;;5.60;;
1533;SDS011;760;48.822;9.304;2023-03-08T09:16:27;6.63;;;5.25;;
1533;SDS011;760;48.822;9.304;2023-03-08T09:18:57;7.40;;;5.18;;
1533;SDS011;760;48.822;9.304;2023-03-08T09:21:24;6.30;;;4.55;;
1533;SDS011;760;48.822;9.304;2023-03-08T09:23:52;8.73;;;5.97;;
1533;SDS011;760;48.822;9.304;2023-03-08T09:26:18;11.63;;;6.03;;
1533;SDS011;760;48.822;9.304;2023-03-08T09:28:44;10.07;;;6.23;;
1533;SDS011;760;48.822;9.304;2023-03-08T09:31:10;7.43;;;4.40;;
1533;SDS011;760;48.822;9.304;2023-03-08T09:33:42;6.93;;;6.15;;
1533;SDS011;760;48.822;9.304;2023-03-08T09:36:12;7.22;;;6.55;;
1533;SDS011;760;48.822;9.304;2023-03-08T09:38:38;9.25;;;5.68;;
1533;SDS011;760;48.822;9.304;2023-03-08T09:41:10;7.32;;;6.05;;
1533;SDS011;760;48.822;9.304;2023-03-08T09:52:37;13.45;;;5.55;;
1533;SDS011;760;48.822;9.304;2023-03-08T09:57:50;12.00;;;6.85;;
1533;SDS011;760;48.822;9.304;2023-03-08T10:00:21;9.65;;;6.88;;
1533;SDS011;760;48.822;9.304;2023-03-08T10:08:17;9.15;;;6.15;;
1533;SDS011;760;48.822;9.304;2023-03-08T10:10:53;9.88;;;6.97;;
1533;SDS011;760;48.822;9.304;2023-03-08T10:13:35;9.82;;;7.13;;
1533;SDS011;760;48.822;9.304;2023-03-08T10:21:39;9.48;;;5.95;;
1533;SDS011;760;48.822;9.304;2023-03-08T10:27:04;8.27;;;6.65;;
1533;SDS011;760;48.822;9.304;2023-03-08T10:29:39;10.20;;;4.10;;
1533;SDS011;760;48.822;9.304;2023-03-08T10:32:11;4.85;;;3.90;;
1533;SDS011;760;48.822;9.304;2023-03-08T10:34:37;4.50;;;4.10;;
1533;SDS011;760;48.822;9.304;2023-03-08T10:37:04;5.10;;;4.43;;
1533;SDS011;760;48.822;9.304;2023-03-08T10:39:37;4.55;;;3.88;;
1533;SDS011;760;48.822;9.304;2023-03-08T10:42:23;5.22;;;4.30;;
1533;SDS011;760;48.822;9.304;2023-03-08T10:47:26;4.32;;;3.25;;
1533;SDS011;760;48.822;9.304;2023-03-08T10:50:11;5.40;;;3.63;;
1533;SDS011;760;48.822;9.304;2023-03-08T10:52:42;4.40;;;3.28;;
1533;SDS011;760;48.822;9.304;2023-03-08T10:57:55;4.45;;;2.83;;
1533;SDS011;760;48.822;9.304;2023-03-08T11:05:34;8.38;;;2.47;;
1533;SDS011;760;48.822;9.304;2023-03-08T11:08:01;2.50;;;2.30;;
1533;SDS011;760;48.822;9.304;2023-03-08T11:10:28;2.38;;;2.13;;
1533;SDS011;760;48.822;9.304;2023-03-08T11:13:05;2.50;;;2.20;;
1533;SDS011;760;48.822;9.304;2023-03-08T11:15:53;1.90;;;1.80;;
1533;SDS011;760;48.822;9.304;2023-03-08T11:18:32;1.70;;;1.60;;
1533;SDS011;760;48.822;9.304;2023-03-08T11:21:05;4.13;;;1.97;;
1533;SDS011;760;48.822;9.304;2023-03-08T11:23:42;1.60;;;1.43;;
1533;SDS011;760;48.822;9.304;2023-03-08T11:26:18;1.10;;;1.10;;
1533;SDS011;760;48.822;9.304;2023-03-08T11:29:01;1.07;;;0.87;;
1533;SDS011;760;48.822;9.304;2023-03-08T11:37:01;0.87;;;0.87;;
1533;SDS011;760;48.822;9.304;2023-03-08T11:42:05;0.70;;;0.70;;
1533;SDS011;760;48.822;9.304;2023-03-08T11:49:53;1.23;;;0.70;;
1533;SDS011;760;48.822;9.304;2023-03-08T11:57:39;0.90;;;0.70;;
1533;SDS011;760;48.822;9.304;2023-03-08T12:00:29;1.23;;;0.77;;
1533;SDS011;760;48.822;9.304;2023-03-08T12:03:00;2.47;;;1.10;;
1533;SDS011;760;48.822;9.304;2023-03-08T12:05:33;1.13;;;1.03;;
1533;SDS011;760;48.822;9.304;2023-03-08T12:08:11;0.97;;;0.97;;
1533;SDS011;760;48.822;9.304;2023-03-08T12:10:53;0.50;;;0.50;;
1533;SDS011;760;48.822;9.304;2023-03-08T12:13:24;0.60;;;0.60;;
1533;SDS011;760;48.822;9.304;2023-03-08T12:16:09;1.03;;;1.03;;
1533;SDS011;760;48.822;9.304;2023-03-08T12:18:41;1.07;;;0.80;;
1533;SDS011;760;48.822;9.304;2023-03-08T12:21:18;1.20;;;1.20;;
1533;SDS011;760;48.822;9.304;2023-03-08T12:26:37;0.87;;;0.87;;
1533;SDS011;760;48.822;9.304;2023-03-08T12:31:49;0.60;;;0.50;;
1533;SDS011;760;48.822;9.304;2023-03-08T12:34:29;0.70;;;0.70;;
1533;SDS011;760;48.822;9.304;2023-03-08T12:37:00;0.80;;;0.80;;
1533;SDS011;760;48.822;9.304;2023-03-08T12:39:32;0.67;;;0.67;;
1533;SDS011;760;48.822;9.304;2023-03-08T12:42:00;0.70;;;0.60;;
1533;SDS011;760;48.822;9.304;2023-03-08T12:44:32;1.13;;;1.03;;
1533;SDS011;760;48.822;9.304;2023-03-08T12:46:59;0.90;;;0.90;;
1533;SDS011;760;48.822;9.304;2023-03-08T12:49:35;0.93;;;0.93;;
1533;SDS011;760;48.822;9.304;2023-03-08T12:54:41;0.60;;;0.60;;
1533;SDS011;760;48.822;9.304;2023-03-08T12:57:15;0.87;;;0.80;;
1533;SDS011;760;48.822;9.304;2023-03-08T12:59:47;0.90;;;0.90;;
1533;SDS011;760;48.822;9.304;2023-03-08T13:05:00;0.70;;;0.70;;
1533;SDS011;760;48.822;9.304;2023-03-08T13:08:27;0.70;;;0.70;;
1533;SDS011;760;48.822;9.304;2023-03-08T13:13:27;0.60;;;0.60;;
1533;SDS011;760;48.822;9.304;2023-03-08T13:18:40;0.80;;;0.80;;
1533;SDS011;760;48.822;9.304;2023-03-08T13:27:11;1.17;;;0.60;;
1533;SDS011;760;48.822;9.304;2023-03-08T13:29:38;0.60;;;0.60;;
1533;SDS011;760;48.822;9.304;2023-03-08T13:32:15;1.00;;;0.90;;
1533;SDS011;760;48.822;9.304;2023-03-08T13:34:43;0.77;;;0.77;;
1533;SDS011;760;48.822;9.304;2023-03-08T13:37:24;1.00;;;1.00;;
1533;SDS011;760;48.822;9.304;2023-03-08T13:39:52;1.37;;;0.63;;
1533;SDS011;760;48.822;9.304;2023-03-08T13:42:19;0.60;;;0.60;;
1533;SDS011;760;48.822;9.304;2023-03-08T13:44:49;0.60;;;0.60;;
1533;SDS011;760;48.822;9.304;2023-03-08T13:47:18;1.10;;;0.60;;
1533;SDS011;760;48.822;9.304;2023-03-08T13:49:49;0.70;;;0.70;;
1533;SDS011;760;48.822;9.304;2023-03-08T13:52:18;0.93;;;0.93;;
1533;SDS011;760;48.822;9.304;2023-03-08T13:54:53;0.50;;;0.50;;
1533;SDS011;760;48.822;9.304;2023-03-08T13:57:26;0.90;;;0.90;;
1533;SDS011;760;48.822;9.304;2023-03-08T14:00:00;1.30;;;1.20;;
1533;SDS011;760;48.822;9.304;2023-03-08T14:02:45;0.80;;;0.80;;
1533;SDS011;760;48.822;9.304;2023-03-08T14:05:19;1.17;;;0.90;;
1533;SDS011;760;48.822;9.304;2023-03-08T14:07:55;0.83;;;0.83;;
1533;SDS011;760;48.822;9.304;2023-03-08T14:10:23;0.60;;;0.60;;
1533;SDS011;760;48.822;9.304;2023-03-08T14:12:55;0.60;;;0.60;;
1533;SDS011;760;48.822;9.304;2023-03-08T14:15:21;0.60;;;0.50;;
1533;SDS011;760;48.822;9.304;2023-03-08T14:17:47;0.67;;;0.60;;
1533;SDS011;760;48.822;9.304;2023-03-08T14:20:20;0.50;;;0.50;;
1533;SDS011;760;48.822;9.304;2023-03-08T14:22:50;0.50;;;0.50;;
1533;SDS011;760;48.822;9.304;2023-03-08T14:25:35;0.70;;;0.60;;
1533;SDS011;760;48.822;9.304;2023-03-08T14:28:00;0.60;;;0.60;;
1533;SDS011;760;48.822;9.304;2023-03-08T14:30:27;0.60;;;0.60;;
1533;SDS011;760;48.822;9.304;2023-03-08T14:32:58;0.50;;;0.50;;
1533;SDS011;760;48.822;9.304;2023-03-08T14:35:35;0.33;;;0.33;;
1533;SDS011;760;48.822;9.304;2023-03-08T14:38:14;0.67;;;0.67;;
1533;SDS011;760;48.822;9.304;2023-03-08T14:40:48;1.87;;;0.60;;
1533;SDS011;760;48.822;9.304;2023-03-08T14:43:16;0.57;;;0.57;;
1533;SDS011;760;48.822;9.304;2023-03-08T14:48:21;0.50;;;0.50;;
1533;SDS011;760;48.822;9.304;2023-03-08T14:53:33;0.50;;;0.50;;
1533;SDS011;760;48.822;9.304;2023-03-08T14:56:21;1.03;;;1.03;;
1533;SDS011;760;48.822;9.304;2023-03-08T14:58:46;0.50;;;0.50;;
1533;SDS011;760;48.822;9.304;2023-03-08T15:01:30;0.50;;;0.43;;
1533;SDS011;760;48.822;9.304;2023-03-08T15:03:59;1.90;;;0.67;;
1533;SDS011;760;48.822;9.304;2023-03-08T15:06:27;2.07;;;0.57;;
1533;SDS011;760;48.822;9.304;2023-03-08T15:08:55;0.40;;;0.40;;
1533;SDS011;760;48.822;9.304;2023-03-08T15:11:22;0.80;;;0.80;;
1533;SDS011;760;48.822;9.304;2023-03-08T15:13:48;0.80;;;0.80;;
1533;SDS011;760;48.822;9.304;2023-03-08T15:16:14;1.53;;;0.80;;
1533;SDS011;760;48.822;9.304;2023-03-08T15:18:40;0.60;;;0.60;;
1533;SDS011;760;48.822;9.304;2023-03-08T15:21:09;2.20;;;1.00;;
1533;SDS011;760;48.822;9.304;2023-03-08T15:23:37;0.83;;;0.73;;
1533;SDS011;760;48.822;9.304;2023-03-08T15:26:06;0.60;;;0.60;;
1533;SDS011;760;48.822;9.304;2023-03-08T15:28:32;1.80;;;0.40;;
1533;SDS011;760;48.822;9.304;2023-03-08T15:30:58;1.73;;;0.80;;
1533;SDS011;760;48.822;9.304;2023-03-08T15:33:23;1.17;;;0.80;;
1533;SDS011;760;48.822;9.304;2023-03-08T15:35:49;1.50;;;0.60;;
1533;SDS011;760;48.822;9.304;2023-03-08T15:38:16;1.00;;;0.90;;
1533;SDS011;760;48.822;9.304;2023-03-08T15:40:43;3.70;;;0.90;;
1533;SDS011;760;48.822;9.304;2023-03-08T15:43:09;1.00;;;0.93;;
1533;SDS011;760;48.822;9.304;2023-03-08T15:45:35;0.90;;;0.60;;
1533;SDS011;760;48.822;9.304;2023-03-08T15:48:05;0.93;;;0.93;;
1533;SDS011;760;48.822;9.304;2023-03-08T15:50:35;0.50;;;0.50;;
1533;SDS011;760;48.822;9.304;2023-03-08T15:53:01;0.93;;;0.93;;
1533;SDS011;760;48.822;9.304;2023-03-08T15:55:28;0.80;;;0.80;;
1533;SDS011;760;48.822;9.304;2023-03-08T15:57:54;0.50;;;0.50;;
1533;SDS011;760;48.822;9.304;2023-03-08T16:00:21;0.47;;;0.47;;
1533;SDS011;760;48.822;9.304;2023-03-08T16:02:47;0.50;;;0.50;;
1533;SDS011;760;48.822;9.304;2023-03-08T16:05:13;0.90;;;0.67;;
1533;SDS011;760;48.822;9.304;2023-03-08T16:07:40;0.70;;;0.70;;
1533;SDS011;760;48.822;9.304;2023-03-08T16:10:10;0.73;;;0.63;;
1533;SDS011;760;48.822;9.304;2023-03-08T16:12:37;0.70;;;0.70;;
1533;SDS011;760;48.822;9.304;2023-03-08T16:15:04;0.97;;;0.73;;
1533;SDS011;760;48.822;9.304;2023-03-08T16:17:30;0.70;;;0.60;;
1533;SDS011;760;48.822;9.304;2023-03-08T16:19:56;0.50;;;0.50;;
1533;SDS011;760;48.822;9.304;2023-03-08T16:22:21;1.80;;;0.97;;
1533;SDS011;760;48.822;9.304;2023-03-08T16:24:47;0.60;;;0.60;;
1533;SDS011;760;48.822;9.304;2023-03-08T16:27:13;0.70;;;0.70;;
1533;SDS011;760;48.822;9.304;2023-03-08T16:29:39;0.60;;;0.60;;
1533;SDS011;760;48.822;9.304;2023-03-08T16:32:05;3.63;;;0.50;;
1533;SDS011;760;48.822;9.304;2023-03-08T16:34:31;3.20;;;0.60;;
1533;SDS011;760;48.822;9.304;2023-03-08T16:36:56;0.83;;;0.70;;
1533;SDS011;760;48.822;9.304;2023-03-08T16:39:23;1.60;;;1.03;;
1533;SDS011;760;48.822;9.304;2023-03-08T16:41:49;0.73;;;0.73;;
1533;SDS011;760;48.822;9.304;2023-03-08T16:44:22;0.50;;;0.50;;
1533;SDS011;760;48.822;9.304;2023-03-08T16:46:49;0.63;;;0.63;;
1533;SDS011;760;48.822;9.304;2023-03-08T16:49:16;0.83;;;0.60;;
1533;SDS011;760;48.822;9.304;2023-03-08T16:51:42;1.00;;;0.83;;
1533;SDS011;760;48.822;9.304;2023-03-08T16:54:08;0.50;;;0.50;;
1533;SDS011;760;48.822;9.304;2023-03-08T16:56:35;0.70;;;0.70;;
1533;SDS011;760;48.822;9.304;2023-03-08T16:59:01;0.60;;;0.60;;
1533;SDS011;760;48.822;9.304;2023-03-08T17:01:26;0.90;;;0.90;;
1533;SDS011;760;48.822;9.304;2023-03-08T17:03:55;0.60;;;0.50;;
1533;SDS011;760;48.822;9.304;2023-03-08T17:06:22;0.60;;;0.50;;
1533;SDS011;760;48.822;9.304;2023-03-08T17:08:50;0.70;;;0.50;;
1533;SDS011;760;48.822;9.304;2023-03-08T17:11:19;0.93;;;0.67;;
1533;SDS011;760;48.822;9.304;2023-03-08T17:13:54;0.70;;;0.70;;
1533;SDS011;760;48.822;9.304;2023-03-08T17:16:22;2.00;;;1.90;;
1533;SDS011;760;48.822;9.304;2023-03-08T17:18:50;0.50;;;0.50;;
1533;SDS011;760;48.822;9.304;2023-03-08T17:21:16;0.90;;;0.63;;
1533;SDS011;760;48.822;9.304;2023-03-08T17:23:43;0.63;;;0.60;;
1533;SDS011;760;48.822;9.304;2023-03-08T17:26:09;3.10;;;2.90;;
1533;SDS011;760;48.822;9.304;2023-03-08T17:28:36;1.30;;;1.20;;
1533;SDS011;760;48.822;9.304;2023-03-08T17:31:05;0.50;;;0.50;;
1533;SDS011;760;48.822;9.304;2023-03-08T17:33:36;0.47;;;0.47;;
1533;SDS011;760;48.822;9.304;2023-03-08T17:36:01;1.17;;;0.70;;
1533;SDS011;760;48.822;9.304;2023-03-08T17:38:29;0.50;;;0.50;;
1533;SDS011;760;48.822;9.304;2023-03-08T17:40:54;0.73;;;0.67;;
1533;SDS011;760;48.822;9.304;2023-03-08T17:43:20;0.50;;;0.50;;
1533;SDS011;760;48.822;9.304;2023-03-08T17:45:56;0.90;;;0.87;;
1533;SDS011;760;48.822;9.304;2023-03-08T17:48:32;0.80;;;0.73;;
1533;SDS011;760;48.822;9.304;2023-03-08T17:51:11;0.57;;;0.57;;
1533;SDS011;760;48.822;9.304;2023-03-08T17:53:39;0.73;;;0.60;;
1533;SDS011;760;48.822;9.304;2023-03-08T17:56:09;0.40;;;0.40;;
1533;SDS011;760;48.822;9.304;2023-03-08T17:58:37;0.67;;;0.67;;
1533;SDS011;760;48.822;9.304;2023-03-08T18:03:57;2.63;;;0.80;;
1533;SDS011;760;48.822;9.304;2023-03-08T18:06:30;0.60;;;0.60;;
1533;SDS011;760;48.822;9.304;2023-03-08T18:09:03;0.70;;;0.70;;
1533;SDS011;760;48.822;9.304;2023-03-08T18:11:30;0.93;;;0.77;;
1533;SDS011;760;48.822;9.304;2023-03-08T18:14:01;0.70;;;0.70;;
1533;SDS011;760;48.822;9.304;2023-03-08T18:16:30;1.50;;;0.60;;
1533;SDS011;760;48.822;9.304;2023-03-08T18:18:57;0.80;;;0.80;;
1533;SDS011;760;48.822;9.304;2023-03-08T18:21:27;0.77;;;0.77;;
1533;SDS011;760;48.822;9.304;2023-03-08T18:23:55;0.60;;;0.60;;
1533;SDS011;760;48.822;9.304;2023-03-08T18:26:20;1.07;;;0.90;;
1533;SDS011;760;48.822;9.304;2023-03-08T18:28:46;1.30;;;1.20;;
1533;SDS011;760;48.822;9.304;2023-03-08T18:31:13;1.23;;;1.17;;
1533;SDS011;760;48.822;9.304;2023-03-08T18:33:41;1.17;;;1.10;;
1533;SDS011;760;48.822;9.304;2023-03-08T18:36:07;0.70;;;0.70;;
1533;SDS011;760;48.822;9.304;2023-03-08T18:38:33;0.53;;;0.53;;
1533;SDS011;760;48.822;9.304;2023-03-08T18:40:59;0.87;;;0.87;;
1533;SDS011;760;48.822;9.304;2023-03-08T18:43:34;1.77;;;1.00;;
1533;SDS011;760;48.822;9.304;2023-03-08T18:45:59;1.10;;;1.00;;
1533;SDS011;760;48.822;9.304;2023-03-08T18:48:25;0.73;;;0.70;;
1533;SDS011;760;48.822;9.304;2023-03-08T18:50:51;1.83;;;1.50;;
1533;SDS011;760;48.822;9.304;2023-03-08T18:53:18;0.70;;;0.70;;
1533;SDS011;760;48.822;9.304;2023-03-08T18:55:54;1.33;;;1.03;;
1533;SDS011;760;48.822;9.304;2023-03-08T18:58:25;0.65;;;0.65;;
1533;SDS011;760;48.822;9.304;2023-03-08T19:00:51;0.87;;;0.70;;
1533;SDS011;760;48.822;9.304;2023-03-08T19:03:20;1.20;;;1.20;;
1533;SDS011;760;48.822;9.304;2023-03-08T19:05:46;0.50;;;0.50;;
1533;SDS011;760;48.822;9.304;2023-03-08T19:08:12;1.80;;;1.07;;
1533;SDS011;760;48.822;9.304;2023-03-08T19:10:37;0.70;;;0.70;;
1533;SDS011;760;48.822;9.304;2023-03-08T19:13:03;1.17;;;0.70;;
1533;SDS011;760;48.822;9.304;2023-03-08T19:15:29;1.03;;;0.77;;
1533;SDS011;760;48.822;9.304;2023-03-08T19:17:55;0.83;;;0.70;;
1533;SDS011;760;48.822;9.304;2023-03-08T19:20:22;0.70;;;0.70;;
1533;SDS011;760;48.822;9.304;2023-03-08T19:22:50;3.07;;;1.60;;
1533;SDS011;760;48.822;9.304;2023-03-08T19:25:16;0.60;;;0.60;;
1533;SDS011;760;48.822;9.304;2023-03-08T19:27:42;0.70;;;0.70;;
1533;SDS011;760;48.822;9.304;2023-03-08T19:30:07;1.40;;;1.30;;
1533;SDS011;760;48.822;9.304;2023-03-08T19:32:34;0.53;;;0.53;;
1533;SDS011;760;48.822;9.304;2023-03-08T19:34:59;0.53;;;0.43;;
1533;SDS011;760;48.822;9.304;2023-03-08T19:37:26;1.10;;;1.10;;
1533;SDS011;760;48.822;9.304;2023-03-08T19:39:51;0.60;;;0.60;;
1533;SDS011;760;48.822;9.304;2023-03-08T19:42:17;0.50;;;0.50;;
1533;SDS011;760;48.822;9.304;2023-03-08T19:44:43;0.50;;;0.50;;
1533;SDS011;760;48.822;9.304;2023-03-08T19:47:14;0.90;;;0.90;;
1533;SDS011;760;48.822;9.304;2023-03-08T19:49:41;1.10;;;1.00;;
1533;SDS011;760;48.822;9.304;2023-03-08T19:52:09;0.93;;;0.70;;
1533;SDS011;760;48.822;9.304;2023-03-08T19:54:37;0.50;;;0.50;;
1533;SDS011;760;48.822;9.304;2023-03-08T19:57:03;1.60;;;1.50;;
1533;SDS011;760;48.822;9.304;2023-03-08T19:59:29;0.50;;;0.50;;
1533;SDS011;760;48.822;9.304;2023-03-08T20:01:55;0.90;;;0.80;;
1533;SDS011;760;48.822;9.304;2023-03-08T20:04:21;0.70;;;0.70;;
1533;SDS011;760;48.822;9.304;2023-03-08T20:06:47;0.67;;;0.67;;
1533;SDS011;760;48.822;9.304;2023-03-08T20:09:15;1.20;;;1.15;;
1533;SDS011;760;48.822;9.304;2023-03-08T20:11:45;0.60;;;0.60;;
1533;SDS011;760;48.822;9.304;2023-03-08T20:14:11;1.60;;;0.77;;
1533;SDS011;760;48.822;9.304;2023-03-08T20:16:37;0.60;;;0.60;;
1533;SDS011;760;48.822;9.304;2023-03-08T20:19:03;0.73;;;0.73;;
1533;SDS011;760;48.822;9.304;2023-03-08T20:21:29;1.30;;;1.20;;
1533;SDS011;760;48.822;9.304;2023-03-08T20:23:55;0.70;;;0.70;;
1533;SDS011;760;48.822;9.304;2023-03-08T20:26:27;0.60;;;0.60;;
1533;SDS011;760;48.822;9.304;2023-03-08T20:28:55;0.90;;;0.90;;
1533;SDS011;760;48.822;9.304;2023-03-08T20:31:21;0.80;;;0.80;;
1533;SDS011;760;48.822;9.304;2023-03-08T20:33:47;0.80;;;0.80;;
1533;SDS011;760;48.822;9.304;2023-03-08T20:36:13;0.80;;;0.80;;
1533;SDS011;760;48.822;9.304;2023-03-08T20:38:39;0.93;;;0.90;;
1533;SDS011;760;48.822;9.304;2023-03-08T20:41:08;1.80;;;1.10;;
1533;SDS011;760;48.822;9.304;2023-03-08T20:43:37;1.27;;;1.17;;
1533;SDS011;760;48.822;9.304;2023-03-08T20:46:04;0.90;;;0.90;;
1533;SDS011;760;48.822;9.304;2023-03-08T20:48:33;0.98;;;0.98;;
1533;SDS011;760;48.822;9.304;2023-03-08T20:51:00;0.93;;;0.73;;
1533;SDS011;760;48.822;9.304;2023-03-08T20:53:27;1.60;;;1.10;;
1533;SDS011;760;48.822;9.304;2023-03-08T20:55:54;1.67;;;1.15;;
1533;SDS011;760;48.822;9.304;2023-03-08T20:58:20;0.98;;;0.88;;
1533;SDS011;760;48.822;9.304;2023-03-08T21:00:46;1.02;;;0.93;;
1533;SDS011;760;48.822;9.304;2023-03-08T21:03:12;1.17;;;1.07;;
1533;SDS011;760;48.822;9.304;2023-03-08T21:05:37;1.10;;;1.10;;
1533;SDS011;760;48.822;9.304;2023-03-08T21:08:04;4.73;;;1.50;;
1533;SDS011;760;48.822;9.304;2023-03-08T21:10:30;0.80;;;0.80;;
1533;SDS011;760;48.822;9.304;2023-03-08T21:12:57;1.98;;;1.10;;
1533;SDS011;760;48.822;9.304;2023-03-08T21:15:26;1.25;;;1.15;;
1533;SDS011;760;48.822;9.304;2023-03-08T21:17:51;1.13;;;0.90;;
1533;SDS011;760;48.822;9.304;2023-03-08T21:20:17;0.93;;;0.93;;
1533;SDS011;760;48.822;9.304;2023-03-08T21:22:43;0.90;;;0.90;;
1533;SDS011;760;48.822;9.304;2023-03-08T21:25:08;1.50;;;1.40;;
1533;SDS011;760;48.822;9.304;2023-03-08T21:27:34;1.27;;;0.90;;
1533;SDS011;760;48.822;9.304;2023-03-08T21:30:00;2.30;;;1.50;;
1533;SDS011;760;48.822;9.304;2023-03-08T21:32:27;1.73;;;1.57;;
1533;SDS011;760;48.822;9.304;2023-03-08T21:34:53;3.50;;;1.60;;
1533;SDS011;760;48.822;9.304;2023-03-08T21:37:19;1.40;;;1.20;;
1533;SDS011;760;48.822;9.304;2023-03-08T21:39:44;3.03;;;1.70;;
1533;SDS011;760;48.822;9.304;2023-03-08T21:42:10;1.30;;;1.23;;
1533;SDS011;760;48.822;9.304;2023-03-08T21:44:36;2.05;;;1.48;;
1533;SDS011;760;48.822;9.304;2023-03-08T21:47:02;2.17;;;1.70;;
1533;SDS011;760;48.822;9.304;2023-03-08T21:49:28;3.70;;;2.25;;
1533;SDS011;760;48.822;9.304;2023-03-08T21:51:55;1.38;;;1.38;;
1533;SDS011;760;48.822;9.304;2023-03-08T21:54:23;2.00;;;1.80;;
1533;SDS011;760;48.822;9.304;2023-03-08T21:56:50;3.55;;;2.03;;
1533;SDS011;760;48.822;9.304;2023-03-08T21:59:16;2.50;;;1.73;;
1533;SDS011;760;48.822;9.304;2023-03-08T22:01:42;1.42;;;1.33;;
1533;SDS011;760;48.822;9.304;2023-03-08T22:04:14;3.13;;;1.75;;
1533;SDS011;760;48.822;9.304;2023-03-08T22:06:40;2.38;;;1.30;;
1533;SDS011;760;48.822;9.304;2023-03-08T22:09:06;2.07;;;1.93;;